Time;durP1;ratioP1;P1;durP2;ratioP2;P2;SDS_P1;SDS_P2;PMS_P1;PMS_P2;Temp;Humidity;BMP_temperature;BMP_pressure;BME280_temperature;BME280_humidity;BME280_pressure;Samples;Min_cycle;Max_cycle;Signal;HPM_P1;HPM_P2
2021/06/05 00:01:23;;;;;;;12.93;10.00;;;;;;;16.42;89.74;101213.84;5057651;28;20561;-50
2021/06/05 00:03:51;;;;;;;13.45;10.70;;;;;;;16.36;90.50;101213.97;5059742;28;20109;-50
2021/06/05 00:06:18;;;;;;;14.95;11.30;;;;;;;16.26;90.76;101208.88;5062018;28;20068;-50
2021/06/05 00:08:47;;;;;;;11.10;9.02;;;;;;;16.33;88.77;101213.13;5058969;28;20463;-50
2021/06/05 00:11:16;;;;;;;11.35;9.15;;;;;;;16.77;86.18;101214.91;5036217;28;20036;-51
2021/06/05 00:13:47;;;;;;;13.67;9.67;;;;;;;16.61;88.88;101220.47;5064497;28;20585;-51
2021/06/05 00:16:18;;;;;;;13.95;10.52;;;;;;;16.43;89.56;101221.72;5058824;28;20362;-52
2021/06/05 00:18:45;;;;;;;11.50;8.88;;;;;;;16.42;89.35;101227.03;5058309;28;20035;-50
2021/06/05 00:21:11;;;;;;;11.77;9.63;;;;;;;16.31;89.79;101225.50;5057120;28;20120;-50
2021/06/05 00:23:38;;;;;;;12.32;8.60;;;;;;;16.40;88.90;101226.22;5062239;28;20119;-52
2021/06/05 00:26:05;;;;;;;11.00;9.23;;;;;;;16.29;90.12;101229.91;5058739;28;20063;-51
2021/06/05 00:28:31;;;;;;;11.73;8.80;;;;;;;16.33;89.38;101236.88;5061464;28;20028;-51
2021/06/05 00:30:58;;;;;;;11.10;8.98;;;;;;;16.29;90.43;101231.69;5040824;28;20064;-55
2021/06/05 00:33:24;;;;;;;11.38;9.20;;;;;;;16.30;90.06;101234.31;5028459;28;20090;-50
2021/06/05 00:35:50;;;;;;;11.88;8.95;;;;;;;16.36;89.22;101243.00;5059268;28;20040;-50
2021/06/05 00:38:17;;;;;;;10.63;8.70;;;;;;;16.42;88.11;101246.41;5040335;28;20615;-52
2021/06/05 00:40:48;;;;;;;11.32;9.05;;;;;;;16.55;89.70;101240.88;5059309;28;20108;-53
2021/06/05 00:43:16;;;;;;;11.18;8.45;;;;;;;16.47;89.48;101235.75;5042512;28;20315;-52
2021/06/05 00:45:45;;;;;;;11.80;9.25;;;;;;;16.40;90.61;101240.28;5026000;28;20713;-51
2021/06/05 00:48:14;;;;;;;11.77;9.10;;;;;;;16.35;91.20;101239.47;5060695;28;20044;-54
2021/06/05 00:50:49;;;;;;;11.82;9.40;;;;;;;16.45;91.00;101246.34;5042815;28;20032;-51
2021/06/05 00:53:16;;;;;;;13.40;10.05;;;;;;;16.67;90.03;101251.19;5057003;28;20051;-50
2021/06/05 00:55:45;;;;;;;14.48;11.15;;;;;;;16.58;89.72;101246.94;5043896;28;20751;-52
2021/06/05 00:58:12;;;;;;;14.07;10.43;;;;;;;16.41;91.03;101243.78;5046902;28;21629;-53
2021/06/05 01:00:46;;;;;;;16.75;11.05;;;;;;;16.31;91.73;101243.06;5044407;28;20079;-51
2021/06/05 01:03:13;;;;;;;13.50;10.02;;;;;;;16.24;90.77;101237.06;5061359;28;20047;-52
2021/06/05 01:05:41;;;;;;;11.82;10.07;;;;;;;16.24;91.63;101234.44;5044639;28;20119;-54
2021/06/05 01:08:46;;;;;;;13.93;10.05;;;;;;;16.18;91.50;101239.81;5039713;28;20071;-50
2021/06/05 01:11:23;;;;;;;14.50;9.68;;;;;;;16.24;89.74;101230.91;5016382;28;20136;-53
2021/06/05 01:14:16;;;;;;;15.90;10.45;;;;;;;16.21;90.92;101231.84;5042356;28;20055;-50
2021/06/05 01:16:46;;;;;;;16.85;9.80;;;;;;;16.20;90.14;101230.13;5063636;28;20032;-54
2021/06/05 01:19:46;;;;;;;14.35;11.05;;;;;;;16.21;91.11;101237.09;5063372;28;20564;-51
2021/06/05 01:22:42;;;;;;;14.32;10.35;;;;;;;16.19;91.73;101233.66;5045607;28;20443;-56
2021/06/05 01:25:46;;;;;;;14.88;10.57;;;;;;;16.15;92.08;101242.50;5059464;28;20151;-50
2021/06/05 01:28:19;;;;;;;17.20;11.05;;;;;;;16.16;92.24;101233.72;5041341;28;20355;-50
2021/06/05 01:30:49;;;;;;;16.92;11.25;;;;;;;16.17;91.68;101238.94;5028123;28;20032;-51
2021/06/05 01:33:19;;;;;;;15.48;12.05;;;;;;;16.16;92.32;101242.47;5044154;28;20592;-52
2021/06/05 01:35:49;;;;;;;14.80;11.60;;;;;;;16.14;92.50;101233.75;5055261;28;20439;-51
2021/06/05 01:38:18;;;;;;;16.17;11.68;;;;;;;16.21;92.41;101238.88;5033262;28;20090;-52
2021/06/05 01:40:48;;;;;;;15.40;12.50;;;;;;;16.29;91.98;101244.88;5036915;28;20032;-51
2021/06/05 01:43:18;;;;;;;16.15;12.85;;;;;;;16.33;91.21;101239.50;5046357;28;20021;-52
2021/06/05 01:45:45;;;;;;;14.63;11.85;;;;;;;16.40;89.45;101236.78;5043669;28;20443;-55
2021/06/05 01:48:14;;;;;;;14.95;12.85;;;;;;;16.50;89.97;101233.03;5044734;28;20343;-52
2021/06/05 01:50:45;;;;;;;18.63;12.07;;;;;;;16.47;90.61;101236.59;5062752;28;20101;-55
2021/06/05 01:53:20;;;;;;;15.38;12.10;;;;;;;16.40;91.34;101242.03;5059202;28;20040;-53
2021/06/05 01:55:53;;;;;;;18.10;12.65;;;;;;;16.40;91.48;101237.63;5044520;28;20047;-55
2021/06/05 01:58:24;;;;;;;17.42;13.40;;;;;;;16.36;92.01;101240.38;5041493;28;20032;-51
2021/06/05 02:01:04;;;;;;;14.70;11.55;;;;;;;16.32;91.35;101235.16;5037817;28;20841;-54
2021/06/05 02:03:37;;;;;;;18.45;12.65;;;;;;;16.34;91.53;101237.75;5035557;28;20033;-51
2021/06/05 02:06:22;;;;;;;13.77;10.63;;;;;;;16.59;86.90;101238.13;5061257;28;20507;-51
2021/06/05 02:08:49;;;;;;;14.48;11.07;;;;;;;16.66;88.76;101234.47;5024914;28;20417;-54
2021/06/05 02:11:19;;;;;;;16.67;12.30;;;;;;;16.56;90.42;101240.84;5041743;28;20037;-52
2021/06/05 02:14:31;;;;;;;14.13;11.63;;;;;;;16.48;91.02;101245.41;5040000;28;20039;-52
2021/06/05 02:17:00;;;;;;;15.15;11.23;;;;;;;16.53;91.45;101246.16;4960662;28;20441;-53
2021/06/05 02:19:41;;;;;;;17.25;12.20;;;;;;;16.50;90.95;101246.22;5013136;28;20487;-53
2021/06/05 02:22:31;;;;;;;16.20;11.55;;;;;;;16.56;90.55;101247.88;5036556;28;20343;-55
2021/06/05 02:25:01;;;;;;;16.80;11.48;;;;;;;16.52;90.59;101247.09;5060788;28;20035;-52
2021/06/05 02:27:32;;;;;;;19.00;11.73;;;;;;;16.67;88.20;101246.75;5054456;28;20408;-53
2021/06/05 02:30:00;;;;;;;17.40;12.38;;;;;;;16.56;90.82;101239.94;5045187;28;20047;-54
2021/06/05 02:32:30;;;;;;;19.73;13.43;;;;;;;16.54;90.99;101236.50;5042005;28;20294;-55
2021/06/05 02:35:00;;;;;;;22.83;13.50;;;;;;;16.51;90.87;101245.34;5041606;28;20279;-52
2021/06/05 02:37:41;;;;;;;20.00;12.95;;;;;;;16.44;91.33;101241.09;5031827;28;20108;-54
2021/06/05 02:40:13;;;;;;;21.88;13.32;;;;;;;16.40;91.75;101234.13;5026320;28;20127;-52
2021/06/05 02:42:39;;;;;;;29.30;14.48;;;;;;;16.40;91.78;101236.78;5042924;28;20086;-51
2021/06/05 02:45:15;;;;;;;32.55;17.73;;;;;;;16.45;91.79;101232.28;5042351;28;20431;-52
2021/06/05 02:47:52;;;;;;;25.13;15.23;;;;;;;16.40;91.39;101231.50;5060457;28;20040;-55
2021/06/05 02:50:18;;;;;;;23.58;14.77;;;;;;;16.55;88.30;101235.59;5023366;28;20043;-55
2021/06/05 02:52:45;;;;;;;31.35;18.13;;;;;;;16.57;90.02;101233.78;5037565;28;20108;-51
2021/06/05 02:55:19;;;;;;;32.58;17.83;;;;;;;16.58;91.22;101236.38;5039373;28;20032;-53
2021/06/05 02:57:47;;;;;;;43.35;22.35;;;;;;;16.83;90.54;101236.72;5046227;28;20229;-52
2021/06/05 03:00:27;;;;;;;38.22;21.95;;;;;;;17.00;90.02;101233.78;5044175;28;20096;-52
2021/06/05 03:02:54;;;;;;;44.50;23.60;;;;;;;16.99;89.94;101236.44;5043801;28;20036;-53
2021/06/05 03:05:21;;;;;;;50.03;24.65;;;;;;;16.67;91.51;101230.91;5036632;28;20036;-52
2021/06/05 03:07:49;;;;;;;52.08;25.48;;;;;;;16.64;91.59;101228.34;5061613;28;20032;-54
2021/06/05 03:10:16;;;;;;;51.83;27.90;;;;;;;16.52;91.44;101236.53;5044987;28;20082;-52
2021/06/05 03:12:43;;;;;;;52.38;27.80;;;;;;;16.63;91.62;101229.25;5045877;28;20062;-52
2021/06/05 03:15:09;;;;;;;68.53;28.17;;;;;;;16.56;91.47;101234.66;5026868;28;20322;-51
2021/06/05 03:17:36;;;;;;;49.67;27.65;;;;;;;16.52;91.67;101231.25;5040484;28;20036;-51
2021/06/05 03:20:06;;;;;;;67.22;28.35;;;;;;;16.40;92.11;101234.13;5009495;28;20557;-53
2021/06/05 03:22:32;;;;;;;52.58;28.10;;;;;;;16.37;91.03;101236.84;5054217;28;20448;-51
2021/06/05 03:24:59;;;;;;;63.50;26.75;;;;;;;16.38;91.56;101238.56;5045282;28;20059;-51
2021/06/05 03:27:25;;;;;;;59.30;29.58;;;;;;;16.32;92.03;101227.25;5060402;28;20049;-53
2021/06/05 03:29:51;;;;;;;53.65;27.70;;;;;;;16.21;91.82;101236.25;5060918;28;20043;-51
2021/06/05 03:32:17;;;;;;;40.40;25.00;;;;;;;16.28;90.84;101232.59;5041584;28;20416;-53
2021/06/05 03:34:45;;;;;;;42.85;25.27;;;;;;;16.37;90.22;101239.47;5037479;28;20060;-54
2021/06/05 03:37:12;;;;;;;46.97;25.27;;;;;;;16.48;89.97;101234.84;5023124;28;20363;-54
2021/06/05 03:39:42;;;;;;;48.13;26.80;;;;;;;16.34;91.47;101233.34;5025778;28;20037;-53
2021/06/05 03:42:10;;;;;;;54.00;26.98;;;;;;;16.31;91.33;101238.69;5043130;28;20040;-51
2021/06/05 03:44:36;;;;;;;49.22;27.08;;;;;;;16.33;91.52;101236.88;5058261;28;20071;-55
2021/06/05 03:47:03;;;;;;;47.55;25.83;;;;;;;16.24;92.01;101238.81;5058967;28;20063;-53
2021/06/05 03:49:29;;;;;;;56.83;27.63;;;;;;;16.19;92.05;101244.19;5035446;28;20131;-53
2021/06/05 03:51:57;;;;;;;52.45;27.40;;;;;;;16.22;91.74;101244.13;5062953;28;20128;-56
2021/06/05 03:54:24;;;;;;;72.05;27.60;;;;;;;16.19;92.25;101233.66;5040119;28;20032;-51
2021/06/05 03:56:49;;;;;;;47.33;26.67;;;;;;;16.35;91.93;101234.19;5057659;28;20040;-55
2021/06/05 03:59:15;;;;;;;43.35;25.60;;;;;;;16.43;90.77;101239.34;5059925;28;20042;-55
2021/06/05 04:01:41;;;;;;;45.58;25.80;;;;;;;16.47;90.44;101233.09;5056666;28;20521;-51
2021/06/05 04:04:07;;;;;;;44.63;25.02;;;;;;;16.39;91.44;101235.88;5058325;28;20458;-52
2021/06/05 04:06:33;;;;;;;37.33;23.77;;;;;;;16.71;89.03;101233.50;5060193;28;20500;-52
2021/06/05 04:08:59;;;;;;;42.40;24.63;;;;;;;16.70;89.52;101227.34;5059182;28;20064;-52
2021/06/05 04:11:28;;;;;;;48.20;25.55;;;;;;;16.37;91.38;101228.91;5042941;28;20046;-52
2021/06/05 04:13:57;;;;;;;39.63;22.92;;;;;;;16.24;90.96;101230.91;5039508;28;20047;-51
2021/06/05 04:16:23;;;;;;;45.90;25.67;;;;;;;16.25;91.48;101228.25;5059939;28;20106;-57
2021/06/05 04:18:49;;;;;;;45.20;24.50;;;;;;;16.29;90.82;101224.63;5060718;28;20328;-55
2021/06/05 04:21:21;;;;;;;44.33;24.90;;;;;;;16.23;91.14;101227.41;5041214;28;20096;-52
2021/06/05 04:23:49;;;;;;;53.40;27.45;;;;;;;16.29;90.81;101234.34;5057348;28;20036;-52
2021/06/05 04:26:15;;;;;;;49.03;24.98;;;;;;;16.27;91.84;101231.72;5041912;28;20105;-56
2021/06/05 04:28:41;;;;;;;56.55;27.42;;;;;;;16.13;92.85;101225.84;5061488;28;20385;-55
2021/06/05 04:31:09;;;;;;;57.83;26.80;;;;;;;16.16;92.69;101217.88;5059790;28;20130;-57
2021/06/05 04:33:35;;;;;;;51.45;26.05;;;;;;;16.16;92.58;101221.38;5060809;28;20024;-51
2021/06/05 04:36:07;;;;;;;46.33;25.23;;;;;;;16.25;92.19;101212.41;5042894;28;20086;-52
2021/06/05 04:38:36;;;;;;;41.55;24.55;;;;;;;16.46;90.99;101212.88;5040420;28;20453;-52
2021/06/05 04:41:03;;;;;;;44.63;25.55;;;;;;;16.89;88.47;101212.03;5061628;28;20473;-53
2021/06/05 04:43:29;;;;;;;43.67;25.00;;;;;;;16.51;90.54;101205.75;5061740;28;20028;-53
2021/06/05 04:45:55;;;;;;;51.53;26.08;;;;;;;16.29;91.64;101208.81;5062654;28;20044;-54
2021/06/05 04:48:23;;;;;;;45.65;25.83;;;;;;;16.77;88.64;101217.53;5045416;28;20627;-52
2021/06/05 04:50:50;;;;;;;;;;;;;;;16.91;88.35;101206.69;5056018;28;20599;-54
2021/06/05 04:53:17;;;;;;;47.58;24.65;;;;;;;16.89;88.65;101209.38;5041122;28;20018;-54
2021/06/05 04:55:44;;;;;;;46.88;25.42;;;;;;;16.57;89.65;101210.88;5062990;28;20518;-52
2021/06/05 04:58:10;;;;;;;47.80;26.33;;;;;;;16.67;89.78;101215.09;5059335;28;20703;-57
2021/06/05 05:00:41;;;;;;;47.97;26.58;;;;;;;16.57;90.06;101210.88;5042807;28;20052;-54
2021/06/05 05:03:09;;;;;;;40.55;22.60;;;;;;;16.58;89.02;101215.28;5059372;28;20482;-57
2021/06/05 05:05:36;;;;;;;47.40;25.30;;;;;;;16.33;91.43;101215.78;5056936;28;20052;-56
2021/06/05 05:08:02;;;;;;;49.17;25.80;;;;;;;16.64;90.37;101214.28;5043411;28;20415;-56
2021/06/05 05:10:33;;;;;;;44.08;22.85;;;;;;;16.68;89.31;101221.22;5035709;28;20075;-56
2021/06/05 05:13:00;;;;;;;42.20;24.48;;;;;;;16.78;88.44;101228.06;5049344;28;20041;-53
2021/06/05 05:15:30;;;;;;;47.65;24.67;;;;;;;16.51;90.53;101224.22;5057422;28;20131;-55
2021/06/05 05:17:59;;;;;;;47.42;23.88;;;;;;;16.51;91.65;101232.13;5055966;28;20036;-53
2021/06/05 05:20:29;;;;;;;42.47;23.73;;;;;;;16.49;90.76;101236.56;5061387;28;20496;-57
2021/06/05 05:22:55;;;;;;;52.78;24.70;;;;;;;16.42;91.25;101234.94;5056765;28;20108;-55
2021/06/05 05:25:23;;;;;;;43.63;23.63;;;;;;;16.67;89.89;101236.19;5059056;28;20298;-53
2021/06/05 05:27:50;;;;;;;43.10;24.02;;;;;;;16.75;89.13;101240.44;5023484;28;20040;-57
2021/06/05 05:30:20;;;;;;;48.45;26.30;;;;;;;16.44;90.97;101246.38;5023360;28;20127;-55
2021/06/05 05:32:46;;;;;;;47.25;22.85;;;;;;;16.49;91.10;101233.94;5061145;28;21541;-56
2021/06/05 05:35:12;;;;;;;39.08;22.67;;;;;;;16.61;89.29;101236.31;5035972;28;20503;-54
2021/06/05 05:37:38;;;;;;;39.95;22.27;;;;;;;16.79;88.67;101239.47;5057012;28;20120;-52
2021/06/05 05:40:05;;;;;;;36.63;22.27;;;;;;;16.62;88.63;101240.69;5028449;28;20734;-53
2021/06/05 05:42:31;;;;;;;39.70;22.20;;;;;;;16.76;88.61;101240.41;5042323;28;20050;-56
2021/06/05 05:44:57;;;;;;;43.00;22.88;;;;;;;16.44;89.31;101239.31;5042821;28;20396;-57
2021/06/05 05:47:23;;;;;;;39.83;21.70;;;;;;;16.69;89.57;101246.72;5041227;28;20049;-57
2021/06/05 05:49:52;;;;;;;41.75;20.90;;;;;;;16.74;87.93;101236.94;5005239;28;20064;-57
2021/06/05 05:52:17;;;;;;;;;;;;;;;16.51;90.34;101243.56;5032352;28;20034;-56
2021/06/05 05:54:43;;;;;;;38.15;19.83;;;;;;;16.79;89.40;101252.69;5063795;28;19920;-54
2021/06/05 05:57:09;;;;;;;43.17;22.52;;;;;;;16.55;89.71;101244.38;5062045;28;20509;-53
2021/06/05 05:59:35;;;;;;;37.72;20.13;;;;;;;16.76;88.02;101250.97;5062991;28;20449;-57
2021/06/05 06:02:02;;;;;;;37.22;19.15;;;;;;;16.84;87.72;101256.09;5061614;28;20473;-52
2021/06/05 06:04:28;;;;;;;36.63;19.83;;;;;;;16.74;88.88;101249.25;5058960;28;20420;-58
2021/06/05 06:06:53;;;;;;;39.47;22.30;;;;;;;16.60;90.14;101252.19;5064495;28;20036;-54
2021/06/05 06:09:19;;;;;;;39.97;20.98;;;;;;;16.62;89.28;101248.63;5060439;28;20505;-55
2021/06/05 06:11:46;;;;;;;45.90;21.42;;;;;;;16.38;90.57;101254.38;5062990;28;20036;-53
2021/06/05 06:14:16;;;;;;;49.15;23.63;;;;;;;16.31;92.17;101262.44;5044485;28;20071;-55
2021/06/05 06:16:45;;;;;;;46.97;23.23;;;;;;;16.47;91.79;101262.13;5064116;28;20031;-55
2021/06/05 06:19:13;;;;;;;;;;;;;;;16.74;91.38;101265.09;5047003;28;20129;-55
2021/06/05 06:21:40;;;;;;;40.67;21.00;;;;;;;16.59;90.60;101268.94;5065647;28;20262;-53
2021/06/05 06:24:07;;;;;;;40.80;20.98;;;;;;;16.59;91.59;101271.59;5048004;28;20052;-55
2021/06/05 06:26:34;;;;;;;42.72;21.50;;;;;;;16.52;91.72;101273.47;5067994;28;20036;-54
2021/06/05 06:29:16;;;;;;;41.42;21.20;;;;;;;16.73;90.21;101281.88;5048820;28;20083;-56
2021/06/05 06:31:47;;;;;;;43.65;21.67;;;;;;;16.92;89.75;101277.97;5065864;28;20060;-55
2021/06/05 06:34:14;;;;;;;43.53;22.15;;;;;;;16.71;89.95;101286.28;5067701;28;21198;-56
2021/06/05 06:36:45;;;;;;;37.70;21.38;;;;;;;16.96;88.64;101282.28;5063916;28;20504;-57
2021/06/05 06:39:13;;;;;;;45.65;22.05;;;;;;;16.84;89.57;101280.72;5064530;28;20036;-57
2021/06/05 06:41:40;;;;;;;;;;;;;;;17.04;87.35;101289.16;5048997;28;20402;-58
2021/06/05 06:44:07;;;;;;;36.00;18.60;;;;;;;16.99;87.98;101290.13;5063323;28;19964;-57
2021/06/05 06:46:47;;;;;;;39.50;20.27;;;;;;;16.87;90.25;101287.72;5047220;28;20036;-55
2021/06/05 06:49:20;;;;;;;34.38;19.73;;;;;;;16.87;86.95;101284.22;5063563;28;20489;-58
2021/06/05 06:51:47;;;;;;;38.13;18.90;;;;;;;16.84;89.57;101290.44;5057776;28;20036;-55
2021/06/05 06:54:14;;;;;;;33.40;18.88;;;;;;;17.08;87.82;101299.63;5043623;28;20354;-58
2021/06/05 06:56:42;;;;;;;35.88;18.85;;;;;;;16.80;89.49;101296.66;5048992;28;20140;-54
2021/06/05 06:59:09;;;;;;;36.92;18.63;;;;;;;16.64;90.41;101298.75;5058303;28;20067;-54
2021/06/05 07:01:37;;;;;;;35.38;18.63;;;;;;;17.00;89.23;101304.19;5064189;28;20090;-56
2021/06/05 07:04:04;;;;;;;33.72;18.23;;;;;;;16.88;87.96;101307.94;5062174;28;20154;-57
2021/06/05 07:06:31;;;;;;;36.95;18.30;;;;;;;16.79;89.09;101302.84;5059222;28;20355;-57
2021/06/05 07:08:58;;;;;;;38.83;19.45;;;;;;;16.59;90.76;101304.13;5045144;28;20353;-56
2021/06/05 07:11:30;;;;;;;35.25;18.20;;;;;;;16.75;89.77;101306.44;5041908;28;20052;-55
2021/06/05 07:13:58;;;;;;;31.42;17.52;;;;;;;16.86;88.38;101304.44;5013589;28;20028;-54
2021/06/05 07:16:25;;;;;;;33.70;19.03;;;;;;;16.73;89.76;101310.91;5064833;28;20063;-53
2021/06/05 07:18:51;;;;;;;39.90;20.48;;;;;;;16.56;91.66;101309.47;5056567;28;20133;-53
2021/06/05 07:21:18;;;;;;;35.28;19.77;;;;;;;17.08;87.57;101312.81;5041755;28;20094;-57
2021/06/05 07:23:44;;;;;;;32.33;17.55;;;;;;;16.87;87.38;101307.97;5062469;28;20127;-52
2021/06/05 07:26:15;;;;;;;34.75;19.23;;;;;;;17.14;86.67;101303.91;5030425;28;20044;-57
2021/06/05 07:28:43;;;;;;;32.25;18.73;;;;;;;16.93;88.19;101308.72;5062980;28;20116;-54
2021/06/05 07:31:13;;;;;;;35.30;20.60;;;;;;;17.10;85.97;101310.16;5060365;28;20164;-56
2021/06/05 07:33:41;;;;;;;42.72;20.00;;;;;;;16.81;89.35;101311.63;5061543;28;20118;-58
2021/06/05 07:36:12;;;;;;;34.47;19.23;;;;;;;16.69;89.86;101308.31;5062870;28;20496;-56
2021/06/05 07:38:38;;;;;;;38.85;21.13;;;;;;;16.57;91.37;101313.81;5063268;28;20417;-58
2021/06/05 07:41:04;;;;;;;45.83;21.15;;;;;;;16.55;91.93;101313.00;5056853;28;20135;-56
2021/06/05 07:43:30;;;;;;;37.35;18.75;;;;;;;17.13;88.06;101318.03;5045427;28;20186;-56
2021/06/05 07:45:57;;;;;;;39.30;20.33;;;;;;;17.26;87.78;101324.75;5043587;28;20797;-57
2021/06/05 07:48:24;;;;;;;33.30;19.05;;;;;;;17.29;86.72;101322.06;5059165;28;20471;-57
2021/06/05 07:50:50;;;;;;;40.08;20.48;;;;;;;17.00;88.79;101323.56;5044927;28;20044;-55
2021/06/05 07:53:16;;;;;;;39.92;21.65;;;;;;;16.78;90.60;101323.09;5062513;28;20049;-54
2021/06/05 07:55:44;;;;;;;46.42;22.10;;;;;;;16.75;92.17;101322.28;5044146;28;20059;-53
2021/06/05 07:58:11;;;;;;;43.25;21.05;;;;;;;16.75;90.95;101323.16;5062210;28;20405;-55
2021/06/05 08:00:38;;;;;;;44.95;20.90;;;;;;;16.74;91.71;101317.91;5060361;28;20044;-56
2021/06/05 08:03:06;;;;;;;53.45;23.65;;;;;;;16.72;93.29;101315.28;5060933;28;20040;-57
2021/06/05 08:05:32;;;;;;;45.65;22.92;;;;;;;16.73;91.50;101319.69;5060457;28;20560;-57
2021/06/05 08:07:58;;;;;;;41.40;21.63;;;;;;;16.84;89.87;101316.84;5057744;28;20446;-58
2021/06/05 08:10:25;;;;;;;38.17;19.38;;;;;;;17.26;87.34;101315.97;5060673;28;20032;-57
2021/06/05 08:12:53;;;;;;;39.40;20.75;;;;;;;17.09;90.78;101316.34;5059743;28;20123;-57
2021/06/05 08:15:25;;;;;;;41.67;21.63;;;;;;;17.08;89.97;101319.88;5060485;28;20059;-55
2021/06/05 08:17:52;;;;;;;40.22;21.40;;;;;;;16.87;91.51;101322.03;5059055;28;20485;-58
2021/06/05 08:20:23;;;;;;;42.85;21.13;;;;;;;16.95;91.80;101322.78;5041952;28;20052;-57
2021/06/05 08:22:49;;;;;;;40.78;21.80;;;;;;;16.98;91.06;101320.06;5057533;28;20036;-57
2021/06/05 08:25:15;;;;;;;41.03;21.40;;;;;;;16.91;92.05;101318.47;5060855;28;20386;-58
2021/06/05 08:27:42;;;;;;;41.22;20.92;;;;;;;17.15;90.74;101322.34;5059410;28;21267;-55
2021/06/05 08:30:16;;;;;;;35.72;20.00;;;;;;;16.92;89.03;101320.22;5060308;28;20072;-55
2021/06/05 08:32:42;;;;;;;35.97;19.20;;;;;;;17.10;89.10;101318.06;5056472;28;20064;-55
2021/06/05 08:35:08;;;;;;;40.03;21.45;;;;;;;16.92;91.19;101317.56;5058514;28;20072;-55
2021/06/05 08:37:35;;;;;;;44.25;22.20;;;;;;;16.84;91.88;101322.13;5042131;28;20139;-56
2021/06/05 08:40:03;;;;;;;40.13;20.95;;;;;;;17.07;90.08;101318.16;5057813;28;20047;-52
2021/06/05 08:42:38;;;;;;;37.90;20.70;;;;;;;17.21;90.41;101321.38;5059732;28;20029;-55
2021/06/05 08:45:05;;;;;;;37.95;21.42;;;;;;;17.05;89.26;101317.31;5056629;28;20266;-56
2021/06/05 08:47:35;;;;;;;36.45;20.75;;;;;;;17.11;89.12;101317.19;5040060;28;20565;-55
2021/06/05 08:50:07;;;;;;;41.92;23.20;;;;;;;17.03;90.06;101317.34;5059261;28;20570;-55
2021/06/05 08:52:55;;;;;;;42.67;22.00;;;;;;;16.96;91.65;101316.63;5058740;28;20037;-55
2021/06/05 08:55:47;;;;;;;38.42;21.60;;;;;;;16.99;89.55;101327.09;5057898;28;20071;-52
2021/06/05 08:58:39;;;;;;;41.10;21.33;;;;;;;17.06;89.08;101322.56;5055650;28;21590;-55
2021/06/05 09:01:14;;;;;;;39.88;21.55;;;;;;;17.15;87.38;101327.63;5056925;28;20117;-52
2021/06/05 09:03:41;;;;;;;35.75;21.15;;;;;;;17.25;88.13;101333.63;5038674;28;20040;-54
2021/06/05 09:06:20;;;;;;;35.63;19.60;;;;;;;17.39;86.53;101324.50;5057527;28;20090;-56
2021/06/05 09:08:47;;;;;;;37.03;21.02;;;;;;;17.33;87.65;101336.97;5054859;28;20045;-56
2021/06/05 09:11:15;;;;;;;41.03;21.05;;;;;;;17.10;88.99;101334.81;5040112;28;20566;-56
2021/06/05 09:13:41;;;;;;;40.80;21.98;;;;;;;16.84;91.15;101330.91;5058409;28;20366;-55
2021/06/05 09:16:19;;;;;;;43.92;21.70;;;;;;;16.89;91.19;101322.94;5043140;28;20102;-55
2021/06/05 09:18:50;;;;;;;43.08;22.52;;;;;;;16.89;90.00;101325.56;5063098;28;20044;-54
2021/06/05 09:21:39;;;;;;;43.75;22.17;;;;;;;16.88;91.07;101323.78;5048229;28;20581;-53
2021/06/05 09:24:29;;;;;;;37.30;20.95;;;;;;;17.00;89.51;101325.31;5045412;28;20408;-59
2021/06/05 09:27:05;;;;;;;42.80;22.48;;;;;;;16.92;91.42;101320.22;5061410;28;20051;-54
2021/06/05 09:29:51;;;;;;;40.80;22.48;;;;;;;16.97;91.61;101325.41;5060776;28;20032;-53
2021/06/05 09:32:22;;;;;;;44.08;22.67;;;;;;;17.02;89.79;101313.81;5019804;28;20048;-55
2021/06/05 09:34:51;;;;;;;42.03;22.40;;;;;;;17.00;90.64;101314.75;5061435;28;20465;-53
2021/06/05 09:37:38;;;;;;;44.00;23.30;;;;;;;16.98;90.29;101309.50;5046337;28;20033;-51
2021/06/05 09:40:16;;;;;;;44.65;22.33;;;;;;;17.06;90.44;101319.03;5041576;28;20112;-51
2021/06/05 09:42:53;;;;;;;43.13;23.13;;;;;;;17.19;90.43;101315.25;5044031;28;20313;-51
2021/06/05 09:45:42;;;;;;;48.13;24.38;;;;;;;17.16;91.18;101316.16;5045060;28;20051;-51
2021/06/05 09:48:22;;;;;;;39.60;22.08;;;;;;;17.64;86.04;101324.78;5029052;28;20055;-51
2021/06/05 09:50:51;;;;;;;46.03;23.77;;;;;;;17.53;89.74;101320.63;5035405;28;20033;-52
2021/06/05 09:53:27;;;;;;;41.30;24.02;;;;;;;17.50;88.68;101318.06;5058860;28;20484;-54
2021/06/05 09:55:53;;;;;;;37.17;20.35;;;;;;;17.56;85.02;101324.13;5042479;28;20424;-52
2021/06/05 09:58:38;;;;;;;35.13;20.08;;;;;;;17.76;86.21;101313.91;5061000;28;20268;-52
2021/06/05 10:01:23;;;;;;;39.58;21.15;;;;;;;17.77;88.61;101313.00;5040798;28;20102;-53
2021/06/05 10:03:50;;;;;;;40.65;23.92;;;;;;;17.88;87.89;101323.34;5060471;28;20070;-51
2021/06/05 10:06:40;;;;;;;31.95;19.40;;;;;;;17.89;85.39;101319.78;5021287;28;20046;-50
2021/06/05 10:09:24;;;;;;;36.60;21.55;;;;;;;18.01;86.86;101314.22;5061538;28;20047;-55
2021/06/05 10:12:05;;;;;;;30.92;19.45;;;;;;;18.83;81.69;101319.06;5037249;28;20102;-51
2021/06/05 10:14:43;;;;;;;37.13;20.38;;;;;;;18.71;82.78;101321.16;5055684;28;20044;-54
2021/06/05 10:17:24;;;;;;;33.00;20.65;;;;;;;18.44;85.46;101322.81;5058159;28;20122;-52
2021/06/05 10:19:57;;;;;;;35.90;21.00;;;;;;;18.16;87.27;101328.81;5059995;28;20095;-52
2021/06/05 10:22:25;;;;;;;35.22;18.80;;;;;;;18.51;83.77;101329.69;5062167;28;20117;-53
2021/06/05 10:25:01;;;;;;;35.20;20.65;;;;;;;18.71;82.88;101337.06;5042930;28;20136;-51
2021/06/05 10:27:33;;;;;;;35.30;19.80;;;;;;;18.44;83.16;101328.13;5058963;28;20043;-51
2021/06/05 10:30:05;;;;;;;34.45;19.88;;;;;;;18.30;86.27;101335.53;5041371;28;20514;-50
2021/06/05 10:32:37;;;;;;;32.65;19.77;;;;;;;18.07;86.15;101336.13;5057432;28;20366;-51
2021/06/05 10:35:06;;;;;;;33.88;19.67;;;;;;;18.54;83.52;101334.03;5060376;28;20123;-53
2021/06/05 10:37:34;;;;;;;41.03;20.92;;;;;;;18.20;88.58;101337.56;5061222;28;20488;-51
2021/06/05 10:40:02;;;;;;;35.92;21.02;;;;;;;18.18;87.85;101336.75;5060611;28;20325;-49
2021/06/05 10:42:38;;;;;;;40.53;22.30;;;;;;;18.20;87.95;101340.19;5061378;28;20037;-51
2021/06/05 10:45:09;;;;;;;38.13;22.08;;;;;;;18.43;85.31;101333.44;5057216;28;20039;-51
2021/06/05 10:47:42;;;;;;;37.05;21.85;;;;;;;18.82;82.89;101327.97;5058518;28;20029;-50
2021/06/05 10:50:18;;;;;;;40.80;23.02;;;;;;;18.50;85.71;101332.38;5040657;28;20056;-51
2021/06/05 10:52:46;;;;;;;39.47;20.95;;;;;;;18.47;85.36;101330.69;5061935;28;20036;-50
2021/06/05 10:55:17;;;;;;;38.83;22.65;;;;;;;18.48;86.79;101334.19;5052509;28;20043;-49
2021/06/05 10:57:48;;;;;;;41.20;23.15;;;;;;;18.57;85.01;101333.94;5059583;28;20032;-51
2021/06/05 11:00:42;;;;;;;43.25;24.13;;;;;;;18.38;84.75;101323.81;5056122;28;20052;-49
2021/06/05 11:03:23;;;;;;;39.45;23.60;;;;;;;19.01;81.04;101317.69;5036475;28;20073;-51
2021/06/05 11:06:17;;;;;;;39.50;24.38;;;;;;;18.87;82.34;101326.94;5055385;28;20092;-50
2021/06/05 11:08:54;;;;;;;40.05;23.50;;;;;;;19.08;80.33;101316.63;5041718;28;20469;-50
2021/06/05 11:11:40;;;;;;;37.13;23.33;;;;;;;18.77;82.69;101317.47;5057569;28;20131;-51
2021/06/05 11:14:29;;;;;;;40.15;22.30;;;;;;;18.69;82.40;101317.72;5025435;28;20056;-51
2021/06/05 11:16:57;;;;;;;38.10;22.58;;;;;;;18.44;84.31;101321.94;5040424;28;20044;-51
2021/06/05 11:19:30;;;;;;;39.35;21.05;;;;;;;18.85;81.34;101317.25;5058591;28;20461;-52
2021/06/05 11:22:17;;;;;;;37.25;21.55;;;;;;;18.71;82.04;101305.28;5060807;28;20048;-51
2021/06/05 11:25:04;;;;;;;39.85;22.10;;;;;;;18.62;84.63;101321.44;5057311;28;20040;-55
2021/06/05 11:27:39;;;;;;;37.47;22.80;;;;;;;18.57;84.10;101320.69;5057475;28;20477;-55
2021/06/05 11:30:22;;;;;;;39.28;22.02;;;;;;;18.41;83.80;101317.59;5057632;28;20036;-51